sensor_id;sensor_type;location;lat;lon;timestamp;P1;durP1;ratioP1;P2;durP2;ratioP2
71343;SDS011;59146;43.850;25.948;2022-12-20T00:01:46;53.28;;;23.70;;
71343;SDS011;59146;43.850;25.948;2022-12-20T00:04:11;57.92;;;24.10;;
71343;SDS011;59146;43.850;25.948;2022-12-20T00:06:37;54.97;;;23.17;;
71343;SDS011;59146;43.850;25.948;2022-12-20T00:09:05;56.30;;;22.23;;
71343;SDS011;59146;43.850;25.948;2022-12-20T00:11:32;53.50;;;23.40;;
71343;SDS011;59146;43.850;25.948;2022-12-20T00:13:58;49.10;;;22.17;;
71343;SDS011;59146;43.850;25.948;2022-12-20T00:16:25;49.00;;;21.33;;
71343;SDS011;59146;43.850;25.948;2022-12-20T00:18:52;51.08;;;20.63;;
71343;SDS011;59146;43.850;25.948;2022-12-20T00:21:20;42.83;;;19.30;;
71343;SDS011;59146;43.850;25.948;2022-12-20T00:23:46;55.88;;;22.13;;
71343;SDS011;59146;43.850;25.948;2022-12-20T00:26:13;44.70;;;19.42;;
71343;SDS011;59146;43.850;25.948;2022-12-20T00:28:41;48.45;;;21.08;;
71343;SDS011;59146;43.850;25.948;2022-12-20T00:31:07;46.50;;;21.88;;
71343;SDS011;59146;43.850;25.948;2022-12-20T00:33:34;51.92;;;21.98;;
71343;SDS011;59146;43.850;25.948;2022-12-20T00:36:02;51.97;;;22.75;;
71343;SDS011;59146;43.850;25.948;2022-12-20T00:38:28;45.30;;;20.98;;
71343;SDS011;59146;43.850;25.948;2022-12-20T00:41:13;54.50;;;22.48;;
71343;SDS011;59146;43.850;25.948;2022-12-20T00:43:41;49.35;;;20.83;;
71343;SDS011;59146;43.850;25.948;2022-12-20T00:46:07;51.58;;;19.83;;
71343;SDS011;59146;43.850;25.948;2022-12-20T00:48:34;49.90;;;21.00;;
71343;SDS011;59146;43.850;25.948;2022-12-20T00:51:04;46.95;;;20.42;;
71343;SDS011;59146;43.850;25.948;2022-12-20T00:53:31;49.00;;;22.58;;
71343;SDS011;59146;43.850;25.948;2022-12-20T00:55:58;47.92;;;19.77;;
71343;SDS011;59146;43.850;25.948;2022-12-20T00:58:24;49.75;;;21.30;;
71343;SDS011;59146;43.850;25.948;2022-12-20T01:00:50;45.40;;;19.70;;
71343;SDS011;59146;43.850;25.948;2022-12-20T01:03:15;52.88;;;21.30;;
71343;SDS011;59146;43.850;25.948;2022-12-20T01:05:57;45.38;;;20.25;;
71343;SDS011;59146;43.850;25.948;2022-12-20T01:08:25;46.53;;;19.83;;
71343;SDS011;59146;43.850;25.948;2022-12-20T01:10:59;49.30;;;20.55;;
71343;SDS011;59146;43.850;25.948;2022-12-20T01:13:26;43.33;;;20.10;;
71343;SDS011;59146;43.850;25.948;2022-12-20T01:15:52;52.33;;;23.25;;
71343;SDS011;59146;43.850;25.948;2022-12-20T01:18:17;51.10;;;20.52;;
71343;SDS011;59146;43.850;25.948;2022-12-20T01:20:42;52.60;;;22.80;;
71343;SDS011;59146;43.850;25.948;2022-12-20T01:23:08;49.25;;;21.63;;
71343;SDS011;59146;43.850;25.948;2022-12-20T01:25:33;52.42;;;21.98;;
71343;SDS011;59146;43.850;25.948;2022-12-20T01:27:58;58.58;;;22.90;;
71343;SDS011;59146;43.850;25.948;2022-12-20T01:30:24;51.28;;;22.08;;
71343;SDS011;59146;43.850;25.948;2022-12-20T01:32:49;49.75;;;20.45;;
71343;SDS011;59146;43.850;25.948;2022-12-20T01:35:15;50.05;;;21.17;;
71343;SDS011;59146;43.850;25.948;2022-12-20T01:37:40;52.15;;;22.10;;
71343;SDS011;59146;43.850;25.948;2022-12-20T01:40:06;45.03;;;20.85;;
71343;SDS011;59146;43.850;25.948;2022-12-20T01:42:34;45.83;;;20.15;;
71343;SDS011;59146;43.850;25.948;2022-12-20T01:44:59;47.58;;;21.13;;
71343;SDS011;59146;43.850;25.948;2022-12-20T01:47:25;47.90;;;23.42;;
71343;SDS011;59146;43.850;25.948;2022-12-20T01:49:56;50.30;;;19.90;;
71343;SDS011;59146;43.850;25.948;2022-12-20T01:52:32;50.30;;;22.60;;
71343;SDS011;59146;43.850;25.948;2022-12-20T01:55:02;70.53;;;24.33;;
71343;SDS011;59146;43.850;25.948;2022-12-20T01:57:37;55.42;;;22.58;;
71343;SDS011;59146;43.850;25.948;2022-12-20T02:00:11;51.42;;;21.02;;
71343;SDS011;59146;43.850;25.948;2022-12-20T02:02:37;50.25;;;22.27;;
71343;SDS011;59146;43.850;25.948;2022-12-20T02:05:04;54.47;;;23.02;;
71343;SDS011;59146;43.850;25.948;2022-12-20T02:07:30;47.08;;;20.52;;
71343;SDS011;59146;43.850;25.948;2022-12-20T02:09:58;47.97;;;19.63;;
71343;SDS011;59146;43.850;25.948;2022-12-20T02:12:28;48.30;;;20.15;;
71343;SDS011;59146;43.850;25.948;2022-12-20T02:17:35;48.35;;;21.20;;
71343;SDS011;59146;43.850;25.948;2022-12-20T02:20:29;56.20;;;20.77;;
71343;SDS011;59146;43.850;25.948;2022-12-20T02:26:03;51.00;;;22.35;;
71343;SDS011;59146;43.850;25.948;2022-12-20T02:31:26;51.25;;;20.02;;
71343;SDS011;59146;43.850;25.948;2022-12-20T02:33:57;52.35;;;21.13;;
71343;SDS011;59146;43.850;25.948;2022-12-20T02:36:23;48.72;;;21.08;;
71343;SDS011;59146;43.850;25.948;2022-12-20T02:38:49;52.38;;;22.30;;
71343;SDS011;59146;43.850;25.948;2022-12-20T02:43:48;52.80;;;22.42;;
71343;SDS011;59146;43.850;25.948;2022-12-20T02:46:35;56.75;;;23.20;;
71343;SDS011;59146;43.850;25.948;2022-12-20T02:49:04;54.15;;;23.23;;
71343;SDS011;59146;43.850;25.948;2022-12-20T02:51:35;49.80;;;21.77;;
71343;SDS011;59146;43.850;25.948;2022-12-20T02:54:01;54.88;;;23.13;;
71343;SDS011;59146;43.850;25.948;2022-12-20T02:59:01;48.38;;;24.15;;
71343;SDS011;59146;43.850;25.948;2022-12-20T03:01:33;54.92;;;23.98;;
71343;SDS011;59146;43.850;25.948;2022-12-20T03:04:03;40.60;;;18.48;;
71343;SDS011;59146;43.850;25.948;2022-12-20T03:06:29;54.15;;;23.10;;
71343;SDS011;59146;43.850;25.948;2022-12-20T03:08:55;53.58;;;23.13;;
71343;SDS011;59146;43.850;25.948;2022-12-20T03:11:21;54.53;;;23.65;;
71343;SDS011;59146;43.850;25.948;2022-12-20T03:13:47;55.05;;;23.58;;
71343;SDS011;59146;43.850;25.948;2022-12-20T03:16:12;53.28;;;24.60;;
71343;SDS011;59146;43.850;25.948;2022-12-20T03:18:37;57.17;;;23.10;;
71343;SDS011;59146;43.850;25.948;2022-12-20T03:21:03;55.95;;;24.02;;
71343;SDS011;59146;43.850;25.948;2022-12-20T03:23:29;56.03;;;24.08;;
71343;SDS011;59146;43.850;25.948;2022-12-20T03:25:54;53.92;;;23.52;;
71343;SDS011;59146;43.850;25.948;2022-12-20T03:28:20;53.53;;;22.65;;
71343;SDS011;59146;43.850;25.948;2022-12-20T03:30:45;55.70;;;23.10;;
71343;SDS011;59146;43.850;25.948;2022-12-20T03:33:11;61.85;;;24.13;;
71343;SDS011;59146;43.850;25.948;2022-12-20T03:35:37;56.08;;;24.85;;
71343;SDS011;59146;43.850;25.948;2022-12-20T03:38:02;53.90;;;23.15;;
71343;SDS011;59146;43.850;25.948;2022-12-20T03:40:28;54.25;;;24.17;;
71343;SDS011;59146;43.850;25.948;2022-12-20T03:42:53;60.90;;;23.77;;
71343;SDS011;59146;43.850;25.948;2022-12-20T03:45:18;58.80;;;23.50;;
71343;SDS011;59146;43.850;25.948;2022-12-20T03:47:44;53.47;;;23.85;;
71343;SDS011;59146;43.850;25.948;2022-12-20T03:50:09;55.28;;;24.15;;
71343;SDS011;59146;43.850;25.948;2022-12-20T03:52:36;58.15;;;23.08;;
71343;SDS011;59146;43.850;25.948;2022-12-20T03:55:02;51.30;;;23.83;;
71343;SDS011;59146;43.850;25.948;2022-12-20T03:57:28;52.05;;;22.63;;
71343;SDS011;59146;43.850;25.948;2022-12-20T03:59:54;54.53;;;22.52;;
71343;SDS011;59146;43.850;25.948;2022-12-20T04:02:19;55.83;;;22.85;;
71343;SDS011;59146;43.850;25.948;2022-12-20T04:04:45;50.70;;;23.45;;
71343;SDS011;59146;43.850;25.948;2022-12-20T04:07:11;60.90;;;25.33;;
71343;SDS011;59146;43.850;25.948;2022-12-20T04:09:37;56.28;;;25.08;;
71343;SDS011;59146;43.850;25.948;2022-12-20T04:12:02;57.95;;;24.25;;
71343;SDS011;59146;43.850;25.948;2022-12-20T04:14:28;63.47;;;23.05;;
71343;SDS011;59146;43.850;25.948;2022-12-20T04:16:53;57.67;;;23.70;;
71343;SDS011;59146;43.850;25.948;2022-12-20T04:19:18;57.15;;;25.10;;
71343;SDS011;59146;43.850;25.948;2022-12-20T04:21:44;57.10;;;24.13;;
71343;SDS011;59146;43.850;25.948;2022-12-20T04:24:09;50.33;;;23.30;;
71343;SDS011;59146;43.850;25.948;2022-12-20T04:26:35;59.55;;;25.35;;
71343;SDS011;59146;43.850;25.948;2022-12-20T04:29:01;64.20;;;26.33;;
71343;SDS011;59146;43.850;25.948;2022-12-20T04:31:26;70.05;;;26.90;;
71343;SDS011;59146;43.850;25.948;2022-12-20T04:33:52;61.75;;;24.75;;
71343;SDS011;59146;43.850;25.948;2022-12-20T04:36:18;61.53;;;24.63;;
71343;SDS011;59146;43.850;25.948;2022-12-20T04:38:43;50.80;;;24.48;;
71343;SDS011;59146;43.850;25.948;2022-12-20T04:41:09;59.05;;;25.80;;
71343;SDS011;59146;43.850;25.948;2022-12-20T04:43:46;66.40;;;28.17;;
71343;SDS011;59146;43.850;25.948;2022-12-20T04:46:18;63.78;;;27.23;;
71343;SDS011;59146;43.850;25.948;2022-12-20T04:48:44;65.93;;;27.40;;
71343;SDS011;59146;43.850;25.948;2022-12-20T04:51:09;58.03;;;26.02;;
71343;SDS011;59146;43.850;25.948;2022-12-20T04:53:35;71.65;;;30.48;;
71343;SDS011;59146;43.850;25.948;2022-12-20T04:56:33;65.18;;;28.35;;
71343;SDS011;59146;43.850;25.948;2022-12-20T04:58:58;63.53;;;26.65;;
71343;SDS011;59146;43.850;25.948;2022-12-20T05:01:24;69.38;;;26.73;;
71343;SDS011;59146;43.850;25.948;2022-12-20T05:03:50;61.75;;;25.63;;
71343;SDS011;59146;43.850;25.948;2022-12-20T05:06:16;58.75;;;24.90;;
71343;SDS011;59146;43.850;25.948;2022-12-20T05:08:41;62.28;;;25.90;;
71343;SDS011;59146;43.850;25.948;2022-12-20T05:11:07;56.67;;;25.42;;
71343;SDS011;59146;43.850;25.948;2022-12-20T05:13:33;59.40;;;26.85;;
71343;SDS011;59146;43.850;25.948;2022-12-20T05:15:58;63.92;;;28.98;;
71343;SDS011;59146;43.850;25.948;2022-12-20T05:18:24;66.40;;;26.63;;
71343;SDS011;59146;43.850;25.948;2022-12-20T05:20:50;60.00;;;26.20;;
71343;SDS011;59146;43.850;25.948;2022-12-20T05:23:39;58.03;;;26.58;;
71343;SDS011;59146;43.850;25.948;2022-12-20T05:26:23;62.97;;;25.48;;
71343;SDS011;59146;43.850;25.948;2022-12-20T05:28:49;62.10;;;27.67;;
71343;SDS011;59146;43.850;25.948;2022-12-20T05:31:14;67.25;;;24.92;;
71343;SDS011;59146;43.850;25.948;2022-12-20T05:33:40;60.80;;;25.73;;
71343;SDS011;59146;43.850;25.948;2022-12-20T05:36:05;64.63;;;26.40;;
71343;SDS011;59146;43.850;25.948;2022-12-20T05:38:31;70.38;;;27.90;;
71343;SDS011;59146;43.850;25.948;2022-12-20T05:40:56;75.18;;;31.73;;
71343;SDS011;59146;43.850;25.948;2022-12-20T05:43:22;81.53;;;33.50;;
71343;SDS011;59146;43.850;25.948;2022-12-20T05:45:49;75.20;;;34.42;;
71343;SDS011;59146;43.850;25.948;2022-12-20T05:48:16;87.93;;;34.58;;
71343;SDS011;59146;43.850;25.948;2022-12-20T05:50:42;75.20;;;33.30;;
71343;SDS011;59146;43.850;25.948;2022-12-20T05:53:09;80.25;;;32.45;;
71343;SDS011;59146;43.850;25.948;2022-12-20T05:55:35;85.60;;;35.97;;
71343;SDS011;59146;43.850;25.948;2022-12-20T05:58:01;97.18;;;37.58;;
71343;SDS011;59146;43.850;25.948;2022-12-20T06:00:26;109.47;;;39.83;;
71343;SDS011;59146;43.850;25.948;2022-12-20T06:02:52;125.53;;;45.38;;
71343;SDS011;59146;43.850;25.948;2022-12-20T06:05:17;129.27;;;47.67;;
71343;SDS011;59146;43.850;25.948;2022-12-20T06:07:42;113.97;;;43.65;;
71343;SDS011;59146;43.850;25.948;2022-12-20T06:10:08;107.95;;;42.67;;
71343;SDS011;59146;43.850;25.948;2022-12-20T06:12:34;93.07;;;37.92;;
71343;SDS011;59146;43.850;25.948;2022-12-20T06:14:59;85.45;;;37.25;;
71343;SDS011;59146;43.850;25.948;2022-12-20T06:17:25;78.32;;;36.38;;
71343;SDS011;59146;43.850;25.948;2022-12-20T06:19:50;75.47;;;33.05;;
71343;SDS011;59146;43.850;25.948;2022-12-20T06:22:16;89.82;;;35.17;;
71343;SDS011;59146;43.850;25.948;2022-12-20T06:24:41;84.88;;;34.17;;
71343;SDS011;59146;43.850;25.948;2022-12-20T06:27:06;90.45;;;36.25;;
71343;SDS011;59146;43.850;25.948;2022-12-20T06:29:32;86.85;;;35.55;;
71343;SDS011;59146;43.850;25.948;2022-12-20T06:31:57;80.47;;;35.67;;
71343;SDS011;59146;43.850;25.948;2022-12-20T06:34:23;102.35;;;41.55;;
71343;SDS011;59146;43.850;25.948;2022-12-20T06:36:49;78.57;;;33.83;;
71343;SDS011;59146;43.850;25.948;2022-12-20T06:39:14;97.78;;;42.20;;
71343;SDS011;59146;43.850;25.948;2022-12-20T06:41:40;132.73;;;59.85;;
71343;SDS011;59146;43.850;25.948;2022-12-20T06:44:05;93.82;;;47.38;;
71343;SDS011;59146;43.850;25.948;2022-12-20T06:46:31;87.85;;;43.35;;
71343;SDS011;59146;43.850;25.948;2022-12-20T06:48:57;84.88;;;34.05;;
71343;SDS011;59146;43.850;25.948;2022-12-20T06:51:22;82.25;;;37.08;;
71343;SDS011;59146;43.850;25.948;2022-12-20T06:53:48;90.75;;;37.58;;
71343;SDS011;59146;43.850;25.948;2022-12-20T06:56:13;97.13;;;36.85;;
71343;SDS011;59146;43.850;25.948;2022-12-20T06:58:39;88.65;;;34.20;;
71343;SDS011;59146;43.850;25.948;2022-12-20T07:01:04;70.10;;;33.60;;
71343;SDS011;59146;43.850;25.948;2022-12-20T07:03:30;81.80;;;34.53;;
71343;SDS011;59146;43.850;25.948;2022-12-20T07:05:55;85.65;;;36.00;;
71343;SDS011;59146;43.850;25.948;2022-12-20T07:08:21;83.13;;;35.28;;
71343;SDS011;59146;43.850;25.948;2022-12-20T07:10:48;94.85;;;35.95;;
71343;SDS011;59146;43.850;25.948;2022-12-20T07:13:13;82.88;;;36.15;;
71343;SDS011;59146;43.850;25.948;2022-12-20T07:15:39;82.95;;;36.35;;
71343;SDS011;59146;43.850;25.948;2022-12-20T07:18:05;92.72;;;40.25;;
71343;SDS011;59146;43.850;25.948;2022-12-20T07:20:31;97.97;;;41.08;;
71343;SDS011;59146;43.850;25.948;2022-12-20T07:22:56;101.28;;;43.05;;
71343;SDS011;59146;43.850;25.948;2022-12-20T07:25:22;91.53;;;39.38;;
71343;SDS011;59146;43.850;25.948;2022-12-20T07:27:48;85.30;;;36.65;;
71343;SDS011;59146;43.850;25.948;2022-12-20T07:30:14;87.72;;;38.08;;
71343;SDS011;59146;43.850;25.948;2022-12-20T07:32:40;82.25;;;38.83;;
71343;SDS011;59146;43.850;25.948;2022-12-20T07:35:06;88.32;;;37.22;;
71343;SDS011;59146;43.850;25.948;2022-12-20T07:37:32;91.35;;;33.92;;
71343;SDS011;59146;43.850;25.948;2022-12-20T07:39:57;76.63;;;33.17;;
71343;SDS011;59146;43.850;25.948;2022-12-20T07:42:23;85.43;;;33.60;;
71343;SDS011;59146;43.850;25.948;2022-12-20T07:44:52;72.82;;;33.25;;
71343;SDS011;59146;43.850;25.948;2022-12-20T07:47:19;76.28;;;33.28;;
71343;SDS011;59146;43.850;25.948;2022-12-20T07:49:44;81.75;;;33.08;;
71343;SDS011;59146;43.850;25.948;2022-12-20T07:52:10;78.57;;;35.30;;
71343;SDS011;59146;43.850;25.948;2022-12-20T07:54:42;82.28;;;37.38;;
71343;SDS011;59146;43.850;25.948;2022-12-20T07:57:17;93.43;;;35.65;;
71343;SDS011;59146;43.850;25.948;2022-12-20T07:59:50;89.18;;;38.63;;
71343;SDS011;59146;43.850;25.948;2022-12-20T08:02:23;91.85;;;36.10;;
71343;SDS011;59146;43.850;25.948;2022-12-20T08:05:03;90.88;;;38.45;;
71343;SDS011;59146;43.850;25.948;2022-12-20T08:07:31;82.53;;;35.90;;
71343;SDS011;59146;43.850;25.948;2022-12-20T08:09:56;85.07;;;35.85;;
71343;SDS011;59146;43.850;25.948;2022-12-20T08:12:22;92.82;;;39.63;;
71343;SDS011;59146;43.850;25.948;2022-12-20T08:14:48;82.05;;;35.42;;
71343;SDS011;59146;43.850;25.948;2022-12-20T08:17:16;77.30;;;29.92;;
71343;SDS011;59146;43.850;25.948;2022-12-20T08:19:42;77.30;;;30.48;;
71343;SDS011;59146;43.850;25.948;2022-12-20T08:22:07;69.97;;;31.20;;
71343;SDS011;59146;43.850;25.948;2022-12-20T08:24:32;81.22;;;33.38;;
71343;SDS011;59146;43.850;25.948;2022-12-20T08:26:58;81.35;;;34.17;;
71343;SDS011;59146;43.850;25.948;2022-12-20T08:29:24;73.60;;;31.48;;
71343;SDS011;59146;43.850;25.948;2022-12-20T08:31:49;73.32;;;31.63;;
71343;SDS011;59146;43.850;25.948;2022-12-20T08:34:15;75.22;;;32.30;;
71343;SDS011;59146;43.850;25.948;2022-12-20T08:36:40;85.30;;;34.67;;
71343;SDS011;59146;43.850;25.948;2022-12-20T08:39:06;83.18;;;35.58;;
71343;SDS011;59146;43.850;25.948;2022-12-20T08:41:33;83.75;;;34.10;;
71343;SDS011;59146;43.850;25.948;2022-12-20T08:43:58;81.45;;;34.08;;
71343;SDS011;59146;43.850;25.948;2022-12-20T08:46:24;80.35;;;32.45;;
71343;SDS011;59146;43.850;25.948;2022-12-20T08:48:49;83.25;;;35.38;;
71343;SDS011;59146;43.850;25.948;2022-12-20T08:51:15;82.15;;;34.78;;
71343;SDS011;59146;43.850;25.948;2022-12-20T08:53:41;88.47;;;38.33;;
71343;SDS011;59146;43.850;25.948;2022-12-20T08:58:32;85.32;;;35.40;;
71343;SDS011;59146;43.850;25.948;2022-12-20T09:00:58;77.80;;;34.55;;
71343;SDS011;59146;43.850;25.948;2022-12-20T09:03:30;93.90;;;39.25;;
71343;SDS011;59146;43.850;25.948;2022-12-20T09:05:57;96.32;;;38.22;;
71343;SDS011;59146;43.850;25.948;2022-12-20T09:08:23;83.65;;;37.13;;
71343;SDS011;59146;43.850;25.948;2022-12-20T09:10:49;76.90;;;33.47;;
71343;SDS011;59146;43.850;25.948;2022-12-20T09:13:15;77.28;;;31.40;;
71343;SDS011;59146;43.850;25.948;2022-12-20T09:15:40;85.63;;;33.33;;
71343;SDS011;59146;43.850;25.948;2022-12-20T09:18:06;75.85;;;34.15;;
71343;SDS011;59146;43.850;25.948;2022-12-20T09:20:32;87.72;;;36.83;;
71343;SDS011;59146;43.850;25.948;2022-12-20T09:22:58;86.93;;;37.75;;
71343;SDS011;59146;43.850;25.948;2022-12-20T09:25:27;98.97;;;38.53;;
71343;SDS011;59146;43.850;25.948;2022-12-20T09:27:53;93.88;;;38.17;;
71343;SDS011;59146;43.850;25.948;2022-12-20T09:30:20;92.65;;;35.70;;
71343;SDS011;59146;43.850;25.948;2022-12-20T09:32:46;87.82;;;37.22;;
71343;SDS011;59146;43.850;25.948;2022-12-20T09:35:12;91.07;;;36.90;;
71343;SDS011;59146;43.850;25.948;2022-12-20T09:37:37;92.28;;;37.65;;
71343;SDS011;59146;43.850;25.948;2022-12-20T09:40:03;90.15;;;37.63;;
71343;SDS011;59146;43.850;25.948;2022-12-20T09:42:29;88.85;;;36.80;;
71343;SDS011;59146;43.850;25.948;2022-12-20T09:44:58;89.40;;;36.67;;
71343;SDS011;59146;43.850;25.948;2022-12-20T09:47:27;90.97;;;39.38;;
71343;SDS011;59146;43.850;25.948;2022-12-20T09:49:54;95.57;;;41.42;;
71343;SDS011;59146;43.850;25.948;2022-12-20T10:00:57;87.93;;;37.30;;
71343;SDS011;59146;43.850;25.948;2022-12-20T10:03:27;82.35;;;36.92;;
71343;SDS011;59146;43.850;25.948;2022-12-20T10:05:59;82.15;;;37.58;;
71343;SDS011;59146;43.850;25.948;2022-12-20T10:16:50;77.78;;;29.83;;
71343;SDS011;59146;43.850;25.948;2022-12-20T10:19:26;64.30;;;30.25;;
71343;SDS011;59146;43.850;25.948;2022-12-20T10:27:40;67.70;;;28.10;;
71343;SDS011;59146;43.850;25.948;2022-12-20T10:30:14;69.88;;;27.60;;
71343;SDS011;59146;43.850;25.948;2022-12-20T10:32:44;60.45;;;28.63;;
71343;SDS011;59146;43.850;25.948;2022-12-20T10:37:39;65.18;;;29.98;;
71343;SDS011;59146;43.850;25.948;2022-12-20T10:40:32;69.20;;;30.20;;
71343;SDS011;59146;43.850;25.948;2022-12-20T10:43:00;86.03;;;32.35;;
71343;SDS011;59146;43.850;25.948;2022-12-20T10:45:31;66.68;;;29.83;;
71343;SDS011;59146;43.850;25.948;2022-12-20T10:48:03;67.43;;;27.85;;
71343;SDS011;59146;43.850;25.948;2022-12-20T10:50:30;65.15;;;29.38;;
71343;SDS011;59146;43.850;25.948;2022-12-20T10:55:52;69.28;;;31.88;;
71343;SDS011;59146;43.850;25.948;2022-12-20T11:00:47;67.03;;;31.33;;
71343;SDS011;59146;43.850;25.948;2022-12-20T11:03:20;69.50;;;29.88;;
71343;SDS011;59146;43.850;25.948;2022-12-20T11:05:54;72.25;;;31.83;;
71343;SDS011;59146;43.850;25.948;2022-12-20T11:08:24;67.57;;;29.10;;
71343;SDS011;59146;43.850;25.948;2022-12-20T11:11:24;67.63;;;30.08;;
71343;SDS011;59146;43.850;25.948;2022-12-20T11:13:46;63.60;;;29.17;;
71343;SDS011;59146;43.850;25.948;2022-12-20T11:16:22;67.35;;;29.60;;
71343;SDS011;59146;43.850;25.948;2022-12-20T11:18:55;74.13;;;31.17;;
71343;SDS011;59146;43.850;25.948;2022-12-20T11:21:36;68.32;;;30.27;;
71343;SDS011;59146;43.850;25.948;2022-12-20T11:24:12;73.82;;;30.58;;
71343;SDS011;59146;43.850;25.948;2022-12-20T11:37:36;73.07;;;30.10;;
71343;SDS011;59146;43.850;25.948;2022-12-20T11:40:33;69.55;;;30.33;;
71343;SDS011;59146;43.850;25.948;2022-12-20T11:53:31;67.00;;;28.70;;
71343;SDS011;59146;43.850;25.948;2022-12-20T11:56:05;77.45;;;32.00;;
71343;SDS011;59146;43.850;25.948;2022-12-20T11:58:53;74.97;;;33.35;;
71343;SDS011;59146;43.850;25.948;2022-12-20T12:01:25;87.65;;;35.58;;
71343;SDS011;59146;43.850;25.948;2022-12-20T12:06:43;76.38;;;32.90;;
71343;SDS011;59146;43.850;25.948;2022-12-20T12:11:50;74.28;;;34.15;;
71343;SDS011;59146;43.850;25.948;2022-12-20T12:14:43;76.05;;;33.58;;
71343;SDS011;59146;43.850;25.948;2022-12-20T12:17:23;79.70;;;34.47;;
71343;SDS011;59146;43.850;25.948;2022-12-20T12:20:03;75.00;;;34.28;;
71343;SDS011;59146;43.850;25.948;2022-12-20T12:22:42;78.35;;;35.20;;
71343;SDS011;59146;43.850;25.948;2022-12-20T12:25:13;73.32;;;34.00;;
71343;SDS011;59146;43.850;25.948;2022-12-20T12:27:42;76.13;;;36.35;;
71343;SDS011;59146;43.850;25.948;2022-12-20T12:30:11;87.80;;;37.15;;
71343;SDS011;59146;43.850;25.948;2022-12-20T12:32:55;89.35;;;37.38;;
71343;SDS011;59146;43.850;25.948;2022-12-20T12:44:21;82.50;;;35.97;;
71343;SDS011;59146;43.850;25.948;2022-12-20T12:46:44;87.70;;;38.47;;
71343;SDS011;59146;43.850;25.948;2022-12-20T12:49:17;87.45;;;38.75;;
71343;SDS011;59146;43.850;25.948;2022-12-20T12:51:52;88.70;;;38.33;;
71343;SDS011;59146;43.850;25.948;2022-12-20T12:54:24;89.13;;;38.17;;
71343;SDS011;59146;43.850;25.948;2022-12-20T12:56:58;99.63;;;38.00;;
71343;SDS011;59146;43.850;25.948;2022-12-20T13:04:30;94.68;;;38.90;;
71343;SDS011;59146;43.850;25.948;2022-12-20T13:09:56;89.00;;;37.72;;
71343;SDS011;59146;43.850;25.948;2022-12-20T13:19:53;89.32;;;39.70;;
71343;SDS011;59146;43.850;25.948;2022-12-20T13:22:20;92.13;;;41.55;;
71343;SDS011;59146;43.850;25.948;2022-12-20T13:27:27;92.82;;;42.90;;
71343;SDS011;59146;43.850;25.948;2022-12-20T13:29:58;88.25;;;40.80;;
71343;SDS011;59146;43.850;25.948;2022-12-20T13:43:11;82.50;;;37.40;;
71343;SDS011;59146;43.850;25.948;2022-12-20T13:45:40;91.55;;;38.83;;
71343;SDS011;59146;43.850;25.948;2022-12-20T13:48:10;77.22;;;35.60;;
71343;SDS011;59146;43.850;25.948;2022-12-20T13:50:52;101.20;;;47.47;;
71343;SDS011;59146;43.850;25.948;2022-12-20T13:53:20;89.13;;;40.20;;
71343;SDS011;59146;43.850;25.948;2022-12-20T13:55:47;93.07;;;37.97;;
71343;SDS011;59146;43.850;25.948;2022-12-20T13:58:16;91.15;;;38.47;;
71343;SDS011;59146;43.850;25.948;2022-12-20T14:00:45;85.65;;;37.75;;
71343;SDS011;59146;43.850;25.948;2022-12-20T14:03:19;71.13;;;34.38;;
71343;SDS011;59146;43.850;25.948;2022-12-20T14:06:11;83.40;;;34.70;;
71343;SDS011;59146;43.850;25.948;2022-12-20T14:08:37;75.47;;;35.05;;
71343;SDS011;59146;43.850;25.948;2022-12-20T14:11:08;78.13;;;35.70;;
71343;SDS011;59146;43.850;25.948;2022-12-20T14:13:54;76.97;;;35.78;;
71343;SDS011;59146;43.850;25.948;2022-12-20T14:16:22;77.75;;;32.63;;
71343;SDS011;59146;43.850;25.948;2022-12-20T14:21:20;86.47;;;37.13;;
71343;SDS011;59146;43.850;25.948;2022-12-20T14:23:47;86.68;;;36.50;;
71343;SDS011;59146;43.850;25.948;2022-12-20T14:26:38;82.13;;;37.28;;
71343;SDS011;59146;43.850;25.948;2022-12-20T14:29:08;84.55;;;35.03;;
71343;SDS011;59146;43.850;25.948;2022-12-20T14:34:04;90.22;;;36.33;;
71343;SDS011;59146;43.850;25.948;2022-12-20T14:36:34;90.97;;;36.92;;
71343;SDS011;59146;43.850;25.948;2022-12-20T14:39:00;90.60;;;34.80;;
71343;SDS011;59146;43.850;25.948;2022-12-20T14:44:37;105.00;;;39.13;;
71343;SDS011;59146;43.850;25.948;2022-12-20T14:47:04;99.75;;;40.45;;
71343;SDS011;59146;43.850;25.948;2022-12-20T14:49:39;109.72;;;40.17;;
71343;SDS011;59146;43.850;25.948;2022-12-20T14:52:28;87.18;;;36.67;;
71343;SDS011;59146;43.850;25.948;2022-12-20T14:55:07;92.00;;;37.10;;
71343;SDS011;59146;43.850;25.948;2022-12-20T14:57:39;82.47;;;35.58;;
71343;SDS011;59146;43.850;25.948;2022-12-20T15:13:45;92.55;;;39.50;;
71343;SDS011;59146;43.850;25.948;2022-12-20T15:16:15;95.47;;;41.95;;
71343;SDS011;59146;43.850;25.948;2022-12-20T15:18:45;109.15;;;46.28;;
71343;SDS011;59146;43.850;25.948;2022-12-20T15:21:16;98.03;;;46.75;;
71343;SDS011;59146;43.850;25.948;2022-12-20T15:23:50;90.40;;;40.05;;
71343;SDS011;59146;43.850;25.948;2022-12-20T15:26:18;75.60;;;33.90;;
71343;SDS011;59146;43.850;25.948;2022-12-20T15:28:45;73.97;;;32.67;;
71343;SDS011;59146;43.850;25.948;2022-12-20T15:31:14;77.40;;;31.95;;
71343;SDS011;59146;43.850;25.948;2022-12-20T15:33:42;62.50;;;28.08;;
71343;SDS011;59146;43.850;25.948;2022-12-20T15:36:12;69.75;;;31.45;;
71343;SDS011;59146;43.850;25.948;2022-12-20T15:38:41;78.63;;;32.95;;
71343;SDS011;59146;43.850;25.948;2022-12-20T15:41:07;73.20;;;32.53;;
71343;SDS011;59146;43.850;25.948;2022-12-20T15:43:38;77.20;;;33.28;;
71343;SDS011;59146;43.850;25.948;2022-12-20T15:46:03;67.82;;;31.60;;
71343;SDS011;59146;43.850;25.948;2022-12-20T15:48:29;74.70;;;30.70;;
71343;SDS011;59146;43.850;25.948;2022-12-20T15:50:56;77.72;;;33.92;;
71343;SDS011;59146;43.850;25.948;2022-12-20T15:53:27;80.85;;;35.95;;
71343;SDS011;59146;43.850;25.948;2022-12-20T15:55:56;89.68;;;37.85;;
71343;SDS011;59146;43.850;25.948;2022-12-20T15:58:22;86.15;;;39.35;;
71343;SDS011;59146;43.850;25.948;2022-12-20T16:00:49;88.65;;;38.75;;
71343;SDS011;59146;43.850;25.948;2022-12-20T16:03:28;85.15;;;38.85;;
71343;SDS011;59146;43.850;25.948;2022-12-20T16:05:55;81.47;;;36.85;;
71343;SDS011;59146;43.850;25.948;2022-12-20T16:08:21;79.65;;;36.00;;
71343;SDS011;59146;43.850;25.948;2022-12-20T16:10:47;85.38;;;36.97;;
71343;SDS011;59146;43.850;25.948;2022-12-20T16:13:16;90.68;;;40.83;;
71343;SDS011;59146;43.850;25.948;2022-12-20T16:15:49;78.97;;;36.58;;
71343;SDS011;59146;43.850;25.948;2022-12-20T16:18:15;69.88;;;32.67;;
71343;SDS011;59146;43.850;25.948;2022-12-20T16:20:40;79.13;;;34.22;;
71343;SDS011;59146;43.850;25.948;2022-12-20T16:23:16;75.07;;;35.47;;
71343;SDS011;59146;43.850;25.948;2022-12-20T16:25:43;81.78;;;35.92;;
71343;SDS011;59146;43.850;25.948;2022-12-20T16:28:09;80.55;;;36.20;;
71343;SDS011;59146;43.850;25.948;2022-12-20T16:30:35;86.10;;;36.83;;